Aviation Digital Data Service (ADDS)

Output produced by TAFs form (2211 UTC 30 May 2016)
found at http://www.aviationweather.gov/adds/tafs/
 
KGFL 301737Z 3018/3118 19010G18KT P6SM SCT050 BKN250 
     FM302000 23010KT P6SM BKN050 
     FM302300 24005KT P6SM SCT250 
     FM310400 VRB03KT P6SM SKC 
     FM310800 00000KT 2SM BR SCT005 
     FM311200 24008KT P6SM SKC